Main page
METAR-TAF:

METAR-TAF

Airports :

Scatsta, Shetland, Scotland

Scatsta Airport

latitude: 60-26N, longitude: 001-18W, elevation: 22 m

Current weather observation

The report was made 35 minutes ago, at 18:20 UTC
Wind 12 kt from the West/Southwest
Temperature 8°C
Humidity 93%
Pressure 1026 hPa
Visibility 10 km or more

METAR: EGPM 261820Z AUTO 24012KT 9999 OVC002/// 08/07 Q1026

Time: 19:55 (18:55 UTC)

Forecast

The report was made 10 hours and 54 minutes ago, at 08:01 UTC
Forecast valid from 26 at 09 UTC to 26 at 18 UTC
Wind 10 kt from the West/Southwest
Visibility 10 km or more
Scattered clouds at a height of 300 ft
Broken clouds at a height of 800 ft
Temporary
from 26 at 09 UTC to 26 at 18 UTC
Visibility: 1200 m
Broken clouds at a height of 100 ft
rain, drizzle, mist

TAF: EGPM 260801Z 2609/2618 25010KT 9999 SCT003 BKN008 TEMPO 2609/2618 1200 RADZ BR BKN001

Weather observations and forecasts of more than 4000 airports (METAR and TAF reports).

The available stations are represented by yellow and red dots on the map.

Hover mouse over dot to see the name of the station.

Then click to see weather observations and forecasts.

To change the map : click on the green buttons with a black cross to zoom in, on the green button with a dash to zoom out, or on the green arrows for adjacent maps.


METAR-TAF: